sensor_id;sensor_type;location;lat;lon;timestamp;temperature;humidity
75190;HTU21D;69198;44.694;37.790;2023-11-22T00:00:43;11.22;77.16
75190;HTU21D;69198;44.694;37.790;2023-11-22T00:01:50;11.26;76.99
75190;HTU21D;69198;44.694;37.790;2023-11-22T00:02:51;11.28;76.93
75190;HTU21D;69198;44.694;37.790;2023-11-22T00:03:52;11.32;76.80
75190;HTU21D;69198;44.694;37.790;2023-11-22T00:04:53;11.34;76.68
75190;HTU21D;69198;44.694;37.790;2023-11-22T00:05:54;11.36;76.61
75190;HTU21D;69198;44.694;37.790;2023-11-22T00:06:55;11.39;76.53
75190;HTU21D;69198;44.694;37.790;2023-11-22T00:07:56;11.41;76.46
75190;HTU21D;69198;44.694;37.790;2023-11-22T00:08:57;11.44;76.35
75190;HTU21D;69198;44.694;37.790;2023-11-22T00:09:59;11.45;76.31
75190;HTU21D;69198;44.694;37.790;2023-11-22T00:11:02;11.47;76.25
75190;HTU21D;69198;44.694;37.790;2023-11-22T00:12:04;11.51;76.15
75190;HTU21D;69198;44.694;37.790;2023-11-22T00:13:05;11.52;76.10
75190;HTU21D;69198;44.694;37.790;2023-11-22T00:14:06;11.55;76.03
75190;HTU21D;69198;44.694;37.790;2023-11-22T00:15:07;11.59;76.04
75190;HTU21D;69198;44.694;37.790;2023-11-22T00:16:10;11.64;75.94
75190;HTU21D;69198;44.694;37.790;2023-11-22T00:17:12;11.71;75.79
75190;HTU21D;69198;44.694;37.790;2023-11-22T00:18:13;11.76;75.72
75190;HTU21D;69198;44.694;37.790;2023-11-22T00:19:14;11.79;75.67
75190;HTU21D;69198;44.694;37.790;2023-11-22T00:20:18;11.84;75.60
75190;HTU21D;69198;44.694;37.790;2023-11-22T00:21:18;11.88;75.56
75190;HTU21D;69198;44.694;37.790;2023-11-22T00:22:20;11.91;75.52
75190;HTU21D;69198;44.694;37.790;2023-11-22T00:23:22;11.92;75.50
75190;HTU21D;69198;44.694;37.790;2023-11-22T00:24:27;11.94;75.50
75190;HTU21D;69198;44.694;37.790;2023-11-22T00:25:29;11.99;75.44
75190;HTU21D;69198;44.694;37.790;2023-11-22T00:26:30;12.02;75.39
75190;HTU21D;69198;44.694;37.790;2023-11-22T00:27:34;12.04;75.38
75190;HTU21D;69198;44.694;37.790;2023-11-22T00:28:35;12.04;75.40
75190;HTU21D;69198;44.694;37.790;2023-11-22T00:29:36;12.05;75.38
75190;HTU21D;69198;44.694;37.790;2023-11-22T00:30:37;12.07;75.39
75190;HTU21D;69198;44.694;37.790;2023-11-22T00:31:38;12.08;75.40
75190;HTU21D;69198;44.694;37.790;2023-11-22T00:32:39;12.12;75.38
75190;HTU21D;69198;44.694;37.790;2023-11-22T00:33:41;12.12;75.36
75190;HTU21D;69198;44.694;37.790;2023-11-22T00:34:42;12.12;75.33
75190;HTU21D;69198;44.694;37.790;2023-11-22T00:35:43;12.13;75.34
75190;HTU21D;69198;44.694;37.790;2023-11-22T00:36:44;12.15;75.38
75190;HTU21D;69198;44.694;37.790;2023-11-22T00:37:45;12.16;75.37
75190;HTU21D;69198;44.694;37.790;2023-11-22T00:38:47;12.15;75.38
75190;HTU21D;69198;44.694;37.790;2023-11-22T00:39:48;12.18;75.41
75190;HTU21D;69198;44.694;37.790;2023-11-22T00:40:49;12.19;75.42
75190;HTU21D;69198;44.694;37.790;2023-11-22T00:41:50;12.21;75.41
75190;HTU21D;69198;44.694;37.790;2023-11-22T00:42:52;12.21;75.43
75190;HTU21D;69198;44.694;37.790;2023-11-22T00:43:53;12.22;75.42
75190;HTU21D;69198;44.694;37.790;2023-11-22T00:44:54;12.23;75.46
75190;HTU21D;69198;44.694;37.790;2023-11-22T00:45:56;12.23;75.52
75190;HTU21D;69198;44.694;37.790;2023-11-22T00:46:57;12.27;75.47
75190;HTU21D;69198;44.694;37.790;2023-11-22T00:47:58;12.30;75.40
75190;HTU21D;69198;44.694;37.790;2023-11-22T00:48:59;12.32;75.38
75190;HTU21D;69198;44.694;37.790;2023-11-22T00:50:01;12.33;75.36
75190;HTU21D;69198;44.694;37.790;2023-11-22T00:51:04;12.36;75.33
75190;HTU21D;69198;44.694;37.790;2023-11-22T00:52:11;12.35;75.36
75190;HTU21D;69198;44.694;37.790;2023-11-22T00:53:12;12.38;75.34
75190;HTU21D;69198;44.694;37.790;2023-11-22T00:54:15;12.38;75.31
75190;HTU21D;69198;44.694;37.790;2023-11-22T00:55:16;12.42;75.25
75190;HTU21D;69198;44.694;37.790;2023-11-22T00:56:17;12.43;75.18
75190;HTU21D;69198;44.694;37.790;2023-11-22T00:57:18;12.46;75.11
75190;HTU21D;69198;44.694;37.790;2023-11-22T00:58:19;12.47;75.00
75190;HTU21D;69198;44.694;37.790;2023-11-22T00:59:20;12.50;74.93
75190;HTU21D;69198;44.694;37.790;2023-11-22T01:00:21;12.50;74.88
75190;HTU21D;69198;44.694;37.790;2023-11-22T01:01:23;12.52;74.84
75190;HTU21D;69198;44.694;37.790;2023-11-22T01:02:24;12.52;74.80
75190;HTU21D;69198;44.694;37.790;2023-11-22T01:03:25;12.52;74.76
75190;HTU21D;69198;44.694;37.790;2023-11-22T01:04:26;12.55;74.72
75190;HTU21D;69198;44.694;37.790;2023-11-22T01:05:27;12.55;74.71
75190;HTU21D;69198;44.694;37.790;2023-11-22T01:06:28;12.53;74.69
75190;HTU21D;69198;44.694;37.790;2023-11-22T01:07:29;12.55;74.64
75190;HTU21D;69198;44.694;37.790;2023-11-22T01:08:30;12.57;74.57
75190;HTU21D;69198;44.694;37.790;2023-11-22T01:09:32;12.57;74.53
75190;HTU21D;69198;44.694;37.790;2023-11-22T01:10:33;12.59;74.53
75190;HTU21D;69198;44.694;37.790;2023-11-22T01:11:34;12.59;74.51
75190;HTU21D;69198;44.694;37.790;2023-11-22T01:12:37;12.58;74.51
75190;HTU21D;69198;44.694;37.790;2023-11-22T01:13:38;12.58;74.51
75190;HTU21D;69198;44.694;37.790;2023-11-22T01:14:41;12.60;74.54
75190;HTU21D;69198;44.694;37.790;2023-11-22T01:15:42;12.61;74.54
75190;HTU21D;69198;44.694;37.790;2023-11-22T01:16:45;12.61;74.53
75190;HTU21D;69198;44.694;37.790;2023-11-22T01:17:46;12.59;74.56
75190;HTU21D;69198;44.694;37.790;2023-11-22T01:18:47;12.57;74.60
75190;HTU21D;69198;44.694;37.790;2023-11-22T01:19:49;12.56;74.69
75190;HTU21D;69198;44.694;37.790;2023-11-22T01:20:51;12.55;74.76
75190;HTU21D;69198;44.694;37.790;2023-11-22T01:21:52;12.52;74.80
75190;HTU21D;69198;44.694;37.790;2023-11-22T01:22:53;12.52;74.85
75190;HTU21D;69198;44.694;37.790;2023-11-22T01:23:54;12.51;74.89
75190;HTU21D;69198;44.694;37.790;2023-11-22T01:24:55;12.51;74.92
75190;HTU21D;69198;44.694;37.790;2023-11-22T01:25:56;12.52;74.97
75190;HTU21D;69198;44.694;37.790;2023-11-22T01:26:57;12.56;74.97
75190;HTU21D;69198;44.694;37.790;2023-11-22T01:27:59;12.56;74.95
75190;HTU21D;69198;44.694;37.790;2023-11-22T01:29:00;12.56;74.98
75190;HTU21D;69198;44.694;37.790;2023-11-22T01:30:01;12.58;74.98
75190;HTU21D;69198;44.694;37.790;2023-11-22T01:31:04;12.59;75.02
75190;HTU21D;69198;44.694;37.790;2023-11-22T01:32:05;12.60;75.03
75190;HTU21D;69198;44.694;37.790;2023-11-22T01:33:06;12.59;75.09
75190;HTU21D;69198;44.694;37.790;2023-11-22T01:34:07;12.61;75.14
75190;HTU21D;69198;44.694;37.790;2023-11-22T01:35:08;12.63;75.21
75190;HTU21D;69198;44.694;37.790;2023-11-22T01:36:10;12.66;75.18
75190;HTU21D;69198;44.694;37.790;2023-11-22T01:37:11;12.69;75.22
75190;HTU21D;69198;44.694;37.790;2023-11-22T01:38:13;12.71;75.25
75190;HTU21D;69198;44.694;37.790;2023-11-22T01:39:14;12.73;75.31
75190;HTU21D;69198;44.694;37.790;2023-11-22T01:40:15;12.75;75.31
75190;HTU21D;69198;44.694;37.790;2023-11-22T01:41:16;12.76;75.33
75190;HTU21D;69198;44.694;37.790;2023-11-22T01:42:17;12.77;75.34
75190;HTU21D;69198;44.694;37.790;2023-11-22T01:43:19;12.78;75.33
75190;HTU21D;69198;44.694;37.790;2023-11-22T01:44:20;12.79;75.36
75190;HTU21D;69198;44.694;37.790;2023-11-22T01:45:21;12.81;75.36
75190;HTU21D;69198;44.694;37.790;2023-11-22T01:46:24;12.84;75.36
75190;HTU21D;69198;44.694;37.790;2023-11-22T01:47:25;12.84;75.40
75190;HTU21D;69198;44.694;37.790;2023-11-22T01:48:27;12.86;75.47
75190;HTU21D;69198;44.694;37.790;2023-11-22T01:49:29;12.87;75.50
75190;HTU21D;69198;44.694;37.790;2023-11-22T01:50:30;12.88;75.54
75190;HTU21D;69198;44.694;37.790;2023-11-22T01:51:31;12.88;75.57
75190;HTU21D;69198;44.694;37.790;2023-11-22T01:52:32;12.89;75.59
75190;HTU21D;69198;44.694;37.790;2023-11-22T01:53:33;12.91;75.64
75190;HTU21D;69198;44.694;37.790;2023-11-22T01:54:35;12.91;75.67
75190;HTU21D;69198;44.694;37.790;2023-11-22T01:55:37;12.92;75.73
75190;HTU21D;69198;44.694;37.790;2023-11-22T01:56:38;12.93;75.79
75190;HTU21D;69198;44.694;37.790;2023-11-22T01:57:40;12.94;75.79
75190;HTU21D;69198;44.694;37.790;2023-11-22T01:58:41;12.95;75.82
75190;HTU21D;69198;44.694;37.790;2023-11-22T01:59:43;12.96;75.89
75190;HTU21D;69198;44.694;37.790;2023-11-22T02:00:50;12.96;76.03
75190;HTU21D;69198;44.694;37.790;2023-11-22T02:01:53;12.96;76.15
75190;HTU21D;69198;44.694;37.790;2023-11-22T02:02:55;12.97;76.17
75190;HTU21D;69198;44.694;37.790;2023-11-22T02:03:56;12.97;76.18
75190;HTU21D;69198;44.694;37.790;2023-11-22T02:04:58;12.99;76.23
75190;HTU21D;69198;44.694;37.790;2023-11-22T02:05:59;13.00;76.28
75190;HTU21D;69198;44.694;37.790;2023-11-22T02:07:02;13.00;76.40
75190;HTU21D;69198;44.694;37.790;2023-11-22T02:08:03;13.03;76.44
75190;HTU21D;69198;44.694;37.790;2023-11-22T02:09:05;13.04;76.53
75190;HTU21D;69198;44.694;37.790;2023-11-22T02:10:07;13.04;76.59
75190;HTU21D;69198;44.694;37.790;2023-11-22T02:11:08;13.06;76.63
75190;HTU21D;69198;44.694;37.790;2023-11-22T02:12:09;13.08;76.68
75190;HTU21D;69198;44.694;37.790;2023-11-22T02:13:10;13.09;76.65
75190;HTU21D;69198;44.694;37.790;2023-11-22T02:14:11;13.09;76.70
75190;HTU21D;69198;44.694;37.790;2023-11-22T02:15:13;13.10;76.71
75190;HTU21D;69198;44.694;37.790;2023-11-22T02:16:14;13.12;76.72
75190;HTU21D;69198;44.694;37.790;2023-11-22T02:17:15;13.12;76.76
75190;HTU21D;69198;44.694;37.790;2023-11-22T02:18:17;13.15;76.79
75190;HTU21D;69198;44.694;37.790;2023-11-22T02:19:18;13.16;76.77
75190;HTU21D;69198;44.694;37.790;2023-11-22T02:20:21;13.17;76.79
75190;HTU21D;69198;44.694;37.790;2023-11-22T02:21:22;13.19;76.78
75190;HTU21D;69198;44.694;37.790;2023-11-22T02:22:23;13.20;76.77
75190;HTU21D;69198;44.694;37.790;2023-11-22T02:23:24;13.19;76.86
75190;HTU21D;69198;44.694;37.790;2023-11-22T02:24:25;13.20;76.89
75190;HTU21D;69198;44.694;37.790;2023-11-22T02:25:27;13.21;76.89
75190;HTU21D;69198;44.694;37.790;2023-11-22T02:26:28;13.21;76.88
75190;HTU21D;69198;44.694;37.790;2023-11-22T02:27:31;13.22;76.88
75190;HTU21D;69198;44.694;37.790;2023-11-22T02:28:32;13.22;76.83
75190;HTU21D;69198;44.694;37.790;2023-11-22T02:29:33;13.23;76.81
75190;HTU21D;69198;44.694;37.790;2023-11-22T02:30:35;13.23;76.76
75190;HTU21D;69198;44.694;37.790;2023-11-22T02:31:36;13.24;76.70
75190;HTU21D;69198;44.694;37.790;2023-11-22T02:32:37;13.24;76.69
75190;HTU21D;69198;44.694;37.790;2023-11-22T02:33:39;13.24;76.83
75190;HTU21D;69198;44.694;37.790;2023-11-22T02:34:40;13.25;76.97
75190;HTU21D;69198;44.694;37.790;2023-11-22T02:35:42;13.29;76.95
75190;HTU21D;69198;44.694;37.790;2023-11-22T02:36:43;13.29;77.01
75190;HTU21D;69198;44.694;37.790;2023-11-22T02:37:44;13.30;77.05
75190;HTU21D;69198;44.694;37.790;2023-11-22T02:38:46;13.31;77.02
75190;HTU21D;69198;44.694;37.790;2023-11-22T02:40:14;13.35;76.94
75190;HTU21D;69198;44.694;37.790;2023-11-22T02:41:18;13.30;77.14
75190;HTU21D;69198;44.694;37.790;2023-11-22T02:42:19;13.31;77.21
75190;HTU21D;69198;44.694;37.790;2023-11-22T02:43:20;13.33;77.21
75190;HTU21D;69198;44.694;37.790;2023-11-22T02:44:23;13.33;77.22
75190;HTU21D;69198;44.694;37.790;2023-11-22T02:45:27;13.33;77.24
75190;HTU21D;69198;44.694;37.790;2023-11-22T02:46:28;13.33;77.26
75190;HTU21D;69198;44.694;37.790;2023-11-22T02:47:31;13.35;77.20
75190;HTU21D;69198;44.694;37.790;2023-11-22T02:48:35;13.34;77.40
75190;HTU21D;69198;44.694;37.790;2023-11-22T02:49:36;13.34;77.44
75190;HTU21D;69198;44.694;37.790;2023-11-22T02:50:37;13.37;77.45
75190;HTU21D;69198;44.694;37.790;2023-11-22T02:51:39;13.40;77.47
75190;HTU21D;69198;44.694;37.790;2023-11-22T02:52:41;13.41;77.45
75190;HTU21D;69198;44.694;37.790;2023-11-22T02:53:42;13.43;77.42
75190;HTU21D;69198;44.694;37.790;2023-11-22T02:54:46;13.43;77.48
75190;HTU21D;69198;44.694;37.790;2023-11-22T02:55:48;13.46;77.38
75190;HTU21D;69198;44.694;37.790;2023-11-22T02:56:49;13.47;77.32
75190;HTU21D;69198;44.694;37.790;2023-11-22T02:57:51;13.48;77.31
75190;HTU21D;69198;44.694;37.790;2023-11-22T02:58:52;13.47;77.30
75190;HTU21D;69198;44.694;37.790;2023-11-22T02:59:53;13.47;77.29
75190;HTU21D;69198;44.694;37.790;2023-11-22T03:00:54;13.46;77.34
75190;HTU21D;69198;44.694;37.790;2023-11-22T03:01:57;13.46;77.31
75190;HTU21D;69198;44.694;37.790;2023-11-22T03:02:58;13.48;77.21
75190;HTU21D;69198;44.694;37.790;2023-11-22T03:03:59;13.48;77.10
75190;HTU21D;69198;44.694;37.790;2023-11-22T03:05:01;13.50;77.05
75190;HTU21D;69198;44.694;37.790;2023-11-22T03:06:02;13.51;77.04
75190;HTU21D;69198;44.694;37.790;2023-11-22T03:07:03;13.52;77.05
75190;HTU21D;69198;44.694;37.790;2023-11-22T03:08:06;13.52;77.10
75190;HTU21D;69198;44.694;37.790;2023-11-22T03:09:10;13.53;77.21
75190;HTU21D;69198;44.694;37.790;2023-11-22T03:10:11;13.54;77.21
75190;HTU21D;69198;44.694;37.790;2023-11-22T03:11:13;13.55;77.30
75190;HTU21D;69198;44.694;37.790;2023-11-22T03:12:16;13.55;77.37
75190;HTU21D;69198;44.694;37.790;2023-11-22T03:13:17;13.55;77.38
75190;HTU21D;69198;44.694;37.790;2023-11-22T03:14:19;13.56;77.31
75190;HTU21D;69198;44.694;37.790;2023-11-22T03:15:20;13.55;77.24
75190;HTU21D;69198;44.694;37.790;2023-11-22T03:16:21;13.58;77.22
75190;HTU21D;69198;44.694;37.790;2023-11-22T03:17:22;13.58;77.19
75190;HTU21D;69198;44.694;37.790;2023-11-22T03:18:23;13.58;77.19
75190;HTU21D;69198;44.694;37.790;2023-11-22T03:19:24;13.56;77.22
75190;HTU21D;69198;44.694;37.790;2023-11-22T03:20:25;13.58;77.24
75190;HTU21D;69198;44.694;37.790;2023-11-22T03:21:26;13.59;77.29
75190;HTU21D;69198;44.694;37.790;2023-11-22T03:22:28;13.58;77.28
75190;HTU21D;69198;44.694;37.790;2023-11-22T03:23:32;13.59;77.28
75190;HTU21D;69198;44.694;37.790;2023-11-22T03:24:33;13.59;77.32
75190;HTU21D;69198;44.694;37.790;2023-11-22T03:25:36;13.59;77.35
75190;HTU21D;69198;44.694;37.790;2023-11-22T03:26:37;13.60;77.33
75190;HTU21D;69198;44.694;37.790;2023-11-22T03:27:40;13.61;77.34
75190;HTU21D;69198;44.694;37.790;2023-11-22T03:28:41;13.61;77.38
75190;HTU21D;69198;44.694;37.790;2023-11-22T03:29:43;13.61;77.41
75190;HTU21D;69198;44.694;37.790;2023-11-22T03:30:44;13.60;77.50
75190;HTU21D;69198;44.694;37.790;2023-11-22T03:31:46;13.61;77.56
75190;HTU21D;69198;44.694;37.790;2023-11-22T03:32:47;13.62;77.64
75190;HTU21D;69198;44.694;37.790;2023-11-22T03:33:53;13.61;77.58
75190;HTU21D;69198;44.694;37.790;2023-11-22T03:34:55;13.62;77.50
75190;HTU21D;69198;44.694;37.790;2023-11-22T03:35:58;13.61;77.34
75190;HTU21D;69198;44.694;37.790;2023-11-22T03:36:59;13.62;77.24
75190;HTU21D;69198;44.694;37.790;2023-11-22T03:38:00;13.63;77.13
75190;HTU21D;69198;44.694;37.790;2023-11-22T03:39:01;13.62;77.02
75190;HTU21D;69198;44.694;37.790;2023-11-22T03:40:02;13.63;76.92
75190;HTU21D;69198;44.694;37.790;2023-11-22T03:41:04;13.62;76.82
75190;HTU21D;69198;44.694;37.790;2023-11-22T03:42:06;13.62;76.66
75190;HTU21D;69198;44.694;37.790;2023-11-22T03:43:07;13.63;76.40
75190;HTU21D;69198;44.694;37.790;2023-11-22T03:44:11;13.64;76.27
75190;HTU21D;69198;44.694;37.790;2023-11-22T03:45:12;13.66;76.22
75190;HTU21D;69198;44.694;37.790;2023-11-22T03:46:14;13.67;76.23
75190;HTU21D;69198;44.694;37.790;2023-11-22T03:47:15;13.70;76.26
75190;HTU21D;69198;44.694;37.790;2023-11-22T03:48:16;13.69;76.30
75190;HTU21D;69198;44.694;37.790;2023-11-22T03:49:17;13.68;76.35
75190;HTU21D;69198;44.694;37.790;2023-11-22T03:50:18;13.68;76.39
75190;HTU21D;69198;44.694;37.790;2023-11-22T03:51:20;13.68;76.39
75190;HTU21D;69198;44.694;37.790;2023-11-22T03:52:21;13.68;76.42
75190;HTU21D;69198;44.694;37.790;2023-11-22T03:53:22;13.68;76.41
75190;HTU21D;69198;44.694;37.790;2023-11-22T03:54:23;13.69;76.38
75190;HTU21D;69198;44.694;37.790;2023-11-22T03:55:24;13.70;76.38
75190;HTU21D;69198;44.694;37.790;2023-11-22T03:56:26;13.68;76.41
75190;HTU21D;69198;44.694;37.790;2023-11-22T03:57:27;13.68;76.46
75190;HTU21D;69198;44.694;37.790;2023-11-22T03:58:28;13.67;76.59
75190;HTU21D;69198;44.694;37.790;2023-11-22T03:59:29;13.65;76.63
75190;HTU21D;69198;44.694;37.790;2023-11-22T04:00:31;13.65;76.70
75190;HTU21D;69198;44.694;37.790;2023-11-22T04:01:33;13.62;76.75
75190;HTU21D;69198;44.694;37.790;2023-11-22T04:02:34;13.62;76.87
75190;HTU21D;69198;44.694;37.790;2023-11-22T04:03:35;13.61;76.92
75190;HTU21D;69198;44.694;37.790;2023-11-22T04:04:37;13.61;76.95
75190;HTU21D;69198;44.694;37.790;2023-11-22T04:05:40;13.60;76.97
75190;HTU21D;69198;44.694;37.790;2023-11-22T04:06:41;13.62;76.98
75190;HTU21D;69198;44.694;37.790;2023-11-22T04:07:42;13.61;77.04
75190;HTU21D;69198;44.694;37.790;2023-11-22T04:08:43;13.64;77.03
75190;HTU21D;69198;44.694;37.790;2023-11-22T04:09:44;13.63;77.07
75190;HTU21D;69198;44.694;37.790;2023-11-22T04:10:45;13.64;77.06
75190;HTU21D;69198;44.694;37.790;2023-11-22T04:11:48;13.66;77.09
75190;HTU21D;69198;44.694;37.790;2023-11-22T04:12:49;13.64;77.11
75190;HTU21D;69198;44.694;37.790;2023-11-22T04:13:50;13.65;77.11
75190;HTU21D;69198;44.694;37.790;2023-11-22T04:14:51;13.65;77.13
75190;HTU21D;69198;44.694;37.790;2023-11-22T04:15:52;13.66;77.16
75190;HTU21D;69198;44.694;37.790;2023-11-22T04:16:53;13.67;77.20
75190;HTU21D;69198;44.694;37.790;2023-11-22T04:17:54;13.69;77.12
75190;HTU21D;69198;44.694;37.790;2023-11-22T04:18:55;13.71;77.10
75190;HTU21D;69198;44.694;37.790;2023-11-22T04:19:56;13.73;77.03
75190;HTU21D;69198;44.694;37.790;2023-11-22T04:20:57;13.73;77.00
75190;HTU21D;69198;44.694;37.790;2023-11-22T04:22:01;13.74;77.03
75190;HTU21D;69198;44.694;37.790;2023-11-22T04:23:02;13.76;77.00
75190;HTU21D;69198;44.694;37.790;2023-11-22T04:24:04;13.78;76.98
75190;HTU21D;69198;44.694;37.790;2023-11-22T04:25:05;13.78;77.00
75190;HTU21D;69198;44.694;37.790;2023-11-22T04:26:06;13.78;77.04
75190;HTU21D;69198;44.694;37.790;2023-11-22T04:27:08;13.78;77.09
75190;HTU21D;69198;44.694;37.790;2023-11-22T04:28:09;13.79;77.08
75190;HTU21D;69198;44.694;37.790;2023-11-22T04:29:10;13.81;77.11
75190;HTU21D;69198;44.694;37.790;2023-11-22T04:30:11;13.81;77.25
75190;HTU21D;69198;44.694;37.790;2023-11-22T04:31:17;13.82;77.35
75190;HTU21D;69198;44.694;37.790;2023-11-22T04:32:18;13.84;77.47
75190;HTU21D;69198;44.694;37.790;2023-11-22T04:33:20;13.86;77.63
75190;HTU21D;69198;44.694;37.790;2023-11-22T04:34:21;13.89;77.68
75190;HTU21D;69198;44.694;37.790;2023-11-22T04:35:22;13.89;77.71
75190;HTU21D;69198;44.694;37.790;2023-11-22T04:36:23;13.91;77.85
75190;HTU21D;69198;44.694;37.790;2023-11-22T04:37:24;13.91;78.06
75190;HTU21D;69198;44.694;37.790;2023-11-22T04:38:27;13.93;78.38
75190;HTU21D;69198;44.694;37.790;2023-11-22T04:39:28;13.93;78.70
75190;HTU21D;69198;44.694;37.790;2023-11-22T04:40:30;13.92;78.92
75190;HTU21D;69198;44.694;37.790;2023-11-22T04:41:31;13.93;79.05
75190;HTU21D;69198;44.694;37.790;2023-11-22T04:42:32;13.93;79.12
75190;HTU21D;69198;44.694;37.790;2023-11-22T04:43:33;13.93;79.30
75190;HTU21D;69198;44.694;37.790;2023-11-22T04:44:34;13.96;79.31
75190;HTU21D;69198;44.694;37.790;2023-11-22T04:45:35;13.95;79.31
75190;HTU21D;69198;44.694;37.790;2023-11-22T04:46:36;13.95;79.39
75190;HTU21D;69198;44.694;37.790;2023-11-22T04:47:37;13.96;79.40
75190;HTU21D;69198;44.694;37.790;2023-11-22T04:48:38;13.96;79.38
75190;HTU21D;69198;44.694;37.790;2023-11-22T04:49:41;13.98;79.27
75190;HTU21D;69198;44.694;37.790;2023-11-22T04:50:42;13.98;79.26
75190;HTU21D;69198;44.694;37.790;2023-11-22T04:51:43;14.00;79.25
75190;HTU21D;69198;44.694;37.790;2023-11-22T04:52:46;14.01;79.29
75190;HTU21D;69198;44.694;37.790;2023-11-22T04:53:47;14.01;79.23
75190;HTU21D;69198;44.694;37.790;2023-11-22T04:54:48;14.01;79.15
75190;HTU21D;69198;44.694;37.790;2023-11-22T04:55:49;14.01;79.14
75190;HTU21D;69198;44.694;37.790;2023-11-22T04:56:50;14.01;79.05
75190;HTU21D;69198;44.694;37.790;2023-11-22T04:57:51;14.00;78.96
75190;HTU21D;69198;44.694;37.790;2023-11-22T04:58:53;14.01;78.93
75190;HTU21D;69198;44.694;37.790;2023-11-22T04:59:54;14.03;78.92
75190;HTU21D;69198;44.694;37.790;2023-11-22T05:00:57;14.04;78.96
75190;HTU21D;69198;44.694;37.790;2023-11-22T05:01:58;14.03;79.05
75190;HTU21D;69198;44.694;37.790;2023-11-22T05:02:59;14.03;79.21
75190;HTU21D;69198;44.694;37.790;2023-11-22T05:04:00;14.05;79.27
75190;HTU21D;69198;44.694;37.790;2023-11-22T05:05:01;14.03;79.45
75190;HTU21D;69198;44.694;37.790;2023-11-22T05:06:04;14.05;79.45
75190;HTU21D;69198;44.694;37.790;2023-11-22T05:07:05;14.05;79.35
75190;HTU21D;69198;44.694;37.790;2023-11-22T05:08:06;14.05;79.34
75190;HTU21D;69198;44.694;37.790;2023-11-22T05:09:07;14.05;79.36
75190;HTU21D;69198;44.694;37.790;2023-11-22T05:10:08;14.06;79.30
75190;HTU21D;69198;44.694;37.790;2023-11-22T05:11:10;14.08;79.24
75190;HTU21D;69198;44.694;37.790;2023-11-22T05:12:11;14.07;79.19
75190;HTU21D;69198;44.694;37.790;2023-11-22T05:13:12;14.07;79.12
75190;HTU21D;69198;44.694;37.790;2023-11-22T05:14:13;14.06;79.03
75190;HTU21D;69198;44.694;37.790;2023-11-22T05:15:14;14.06;79.01
75190;HTU21D;69198;44.694;37.790;2023-11-22T05:16:15;14.07;78.99
75190;HTU21D;69198;44.694;37.790;2023-11-22T05:17:16;14.07;79.00
75190;HTU21D;69198;44.694;37.790;2023-11-22T05:18:17;14.09;79.00
75190;HTU21D;69198;44.694;37.790;2023-11-22T05:19:18;14.09;79.01
75190;HTU21D;69198;44.694;37.790;2023-11-22T05:20:19;14.11;79.04
75190;HTU21D;69198;44.694;37.790;2023-11-22T05:21:20;14.10;79.08
75190;HTU21D;69198;44.694;37.790;2023-11-22T05:22:22;14.11;79.09
75190;HTU21D;69198;44.694;37.790;2023-11-22T05:23:23;14.14;79.10
75190;HTU21D;69198;44.694;37.790;2023-11-22T05:24:24;14.13;79.08
75190;HTU21D;69198;44.694;37.790;2023-11-22T05:25:25;14.15;79.11
75190;HTU21D;69198;44.694;37.790;2023-11-22T05:26:26;14.15;79.11
75190;HTU21D;69198;44.694;37.790;2023-11-22T05:27:27;14.14;79.09
75190;HTU21D;69198;44.694;37.790;2023-11-22T05:28:30;14.15;79.03
75190;HTU21D;69198;44.694;37.790;2023-11-22T05:29:31;14.17;78.99
75190;HTU21D;69198;44.694;37.790;2023-11-22T05:30:32;14.17;79.01
75190;HTU21D;69198;44.694;37.790;2023-11-22T05:31:33;14.15;79.02
75190;HTU21D;69198;44.694;37.790;2023-11-22T05:32:34;14.17;79.02
75190;HTU21D;69198;44.694;37.790;2023-11-22T05:33:35;14.17;79.00
75190;HTU21D;69198;44.694;37.790;2023-11-22T05:34:36;14.15;79.08
75190;HTU21D;69198;44.694;37.790;2023-11-22T05:35:37;14.18;79.10
75190;HTU21D;69198;44.694;37.790;2023-11-22T05:36:38;14.18;79.10
75190;HTU21D;69198;44.694;37.790;2023-11-22T05:37:39;14.18;79.03
75190;HTU21D;69198;44.694;37.790;2023-11-22T05:38:40;14.19;78.98
75190;HTU21D;69198;44.694;37.790;2023-11-22T05:39:41;14.18;78.97
75190;HTU21D;69198;44.694;37.790;2023-11-22T05:40:42;14.19;79.05
75190;HTU21D;69198;44.694;37.790;2023-11-22T05:41:44;14.20;79.17
75190;HTU21D;69198;44.694;37.790;2023-11-22T05:42:46;14.18;79.33
75190;HTU21D;69198;44.694;37.790;2023-11-22T05:43:47;14.20;79.36
75190;HTU21D;69198;44.694;37.790;2023-11-22T05:44:48;14.19;79.52
75190;HTU21D;69198;44.694;37.790;2023-11-22T05:45:51;14.20;79.58
75190;HTU21D;69198;44.694;37.790;2023-11-22T05:46:52;14.21;79.51
75190;HTU21D;69198;44.694;37.790;2023-11-22T05:47:55;14.19;79.49
75190;HTU21D;69198;44.694;37.790;2023-11-22T05:48:56;14.19;79.45
75190;HTU21D;69198;44.694;37.790;2023-11-22T05:49:57;14.20;79.40
75190;HTU21D;69198;44.694;37.790;2023-11-22T05:50:58;14.21;79.37
75190;HTU21D;69198;44.694;37.790;2023-11-22T05:51:59;14.21;79.37
75190;HTU21D;69198;44.694;37.790;2023-11-22T05:53:00;14.20;79.40
75190;HTU21D;69198;44.694;37.790;2023-11-22T05:54:01;14.20;79.37
75190;HTU21D;69198;44.694;37.790;2023-11-22T05:55:02;14.21;79.30
75190;HTU21D;69198;44.694;37.790;2023-11-22T05:56:04;14.21;79.30
75190;HTU21D;69198;44.694;37.790;2023-11-22T05:57:05;14.21;79.30
75190;HTU21D;69198;44.694;37.790;2023-11-22T05:58:06;14.23;79.30
75190;HTU21D;69198;44.694;37.790;2023-11-22T05:59:08;14.24;79.27
75190;HTU21D;69198;44.694;37.790;2023-11-22T06:00:09;14.24;79.23
75190;HTU21D;69198;44.694;37.790;2023-11-22T06:01:10;14.26;79.17
75190;HTU21D;69198;44.694;37.790;2023-11-22T06:02:14;14.27;79.11
75190;HTU21D;69198;44.694;37.790;2023-11-22T06:03:15;14.28;78.95
75190;HTU21D;69198;44.694;37.790;2023-11-22T06:04:16;14.33;78.75
75190;HTU21D;69198;44.694;37.790;2023-11-22T06:05:17;14.34;78.35
75190;HTU21D;69198;44.694;37.790;2023-11-22T06:06:19;14.35;78.18
75190;HTU21D;69198;44.694;37.790;2023-11-22T06:07:22;14.36;78.01
75190;HTU21D;69198;44.694;37.790;2023-11-22T06:08:23;14.36;77.88
75190;HTU21D;69198;44.694;37.790;2023-11-22T06:09:24;14.38;77.70
75190;HTU21D;69198;44.694;37.790;2023-11-22T06:10:25;14.40;77.58
75190;HTU21D;69198;44.694;37.790;2023-11-22T06:11:27;14.41;77.44
75190;HTU21D;69198;44.694;37.790;2023-11-22T06:12:28;14.41;77.34
75190;HTU21D;69198;44.694;37.790;2023-11-22T06:13:29;14.42;77.32
75190;HTU21D;69198;44.694;37.790;2023-11-22T06:14:30;14.43;77.23
75190;HTU21D;69198;44.694;37.790;2023-11-22T06:15:31;14.47;77.20
75190;HTU21D;69198;44.694;37.790;2023-11-22T06:16:32;14.48;77.19
75190;HTU21D;69198;44.694;37.790;2023-11-22T06:17:33;14.48;77.21